Terminal Aerodrome Forecast
Issued by NWS Wilmington, OH

Home | Current Version | Previous Version | Text Only | Print | Product List | Glossary On
Versions: 1 2 3 4 5 6 7 8 9 10 11 12 13 14 15 16
000
FTUS41 KILN 121739
TAFCMH
TAF
KCMH 121739Z 1218/1318 31016G23KT P6SM SCT050
     FM121930 31015G23KT P6SM VCSH SCT035
      TEMPO 1222/1224 2SM -SHSN BKN025 OVC040
     FM130300 30010KT P6SM BKN028
     FM130800 29009KT P6SM SCT035
     FM131200 25007KT P6SM SCT100
     FM131400 22007KT P6SM BKN070=

USA.gov is the U.S. government's official web portal to all federal, state and local government web resources and services.